Nearby METAR Reports

CWGD - Goderich (autob), Ontario, Canada
Distance from station: SW 47km
Updated: 08/19/2018 3:00pm

 Wind from W
Wind: W 9 km/h
Temperature: 23°C
Dew Point: 19°C
Humidity: 78%
2018/08/19 19:00 CWGD 191900Z AUTO 27005KT 23/19 RMK AO1 SLP171 T02340187 50000
CWLS - Mount Forest(Mar, Ontario, Canada
Distance from station: ESE 53km
Updated: 08/19/2018 3:00pm

 Wind from WNW
Wind: WNW 4 km/h
Temperature: 24°C
Dew Point: 13°C
Humidity: 50%
2018/08/19 19:00 CWLS 191900Z AUTO 29002KT 24/13 RMK AO1 SLP178 T02360127 50000
 
CYVV - Wiarton Air, Ontario, Canada
Distance from station: NNE 75km
Updated: 08/19/2018 3:00pm
Few Clouds
Few Clouds
 Wind from N
Wind: N 4 km/h
Temperature: 25°C
Dew Point: 17°C
Humidity: 61%
Barometer: 1017.3 hPa
Clouds: Few Clouds
Visibility: 24 km
Cloud details: Few Clouds 975 m
2018/08/19 19:00 CYVV 191900Z 36002KT 15SM FEW032 25/17 A3004 RMK CU2 WND ESTD SLP175 DENSITY ALT 1900FT
CZEL - Elora Rcs, Ontario, Canada
Distance from station: ESE 93km
Updated: 08/19/2018 3:00pm

 Wind from ESE
Wind: ESE 7 km/h
Temperature: 24°C
Dew Point: 12°C
Humidity: 47%
2018/08/19 19:00 CZEL 191900Z AUTO 12004KT 24/12 RMK AO1 SLP176 T02440119 56002
 
CWCO - Collingwood (aut, Ontario, Canada
Distance from station: ENE 104km
Updated: 08/19/2018 3:00pm

 Wind from ENE
Wind: ENE 6 km/h
Temperature: 27°C
Heat Index: 28°C
Dew Point: 16°C
Humidity: 51%
2018/08/19 19:00 CWCO 191900Z AUTO 06003KT 27/16 RMK AO1 SLP164 T02690159 58003
CYKF - Waterloo Well, Ontario, Canada
Distance from station: SE 107km
Updated: 08/19/2018 3:00pm
Clear
Clear
 Wind from NNE
Wind: NNE 7 km/h
Temperature: 24°C
Dew Point: 14°C
Humidity: 54%
Barometer: 1017.6 hPa
Clouds: Clear
Visibility: 14 km
2018/08/19 19:00 CYKF 191900Z AUTO 03004KT 270V050 9SM CLR 24/14 A3005 RMK SLP173 DENSITY ALT 2200FT
 
KP58 - Port Hope, Michigan, USA
Distance from station: W 114km
Updated: 08/19/2018 2:51pm

 Wind from ESE
Wind: ESE 24 km/h
Temperature: 24°C
Dew Point: 21°C
Humidity: 83%
Barometer: 1016.6 hPa
2018/08/19 18:51 KP58 191851Z AUTO 12013KT 24/21 A3002 RMK AO1 SLP157 T02440206
CYBN - Borden, Ontario, Canada
Distance from station: E 118km
Updated: 08/19/2018 3:00pm
Partly cloudy
Partly cloudy
 Wind from ESE
Wind: ESE 13 km/h
Temperature: 25°C
Dew Point: 15°C
Humidity: 54%
Barometer: 1017.6 hPa
Clouds: Partly cloudy
Visibility: 14 km
Cloud details: Partly cloudy 1341 m
Partly cloudy 1615 m
2018/08/19 19:00 CYBN 191900Z AUTO 11007KT 9SM SCT044 SCT053 25/15 A3005 RMK SLP176
 
CYXU - London Airport, Ontario, Canada
Distance from station: S 123km
Updated: 08/19/2018 3:00pm
Mostly cloudy
Mostly cloudy
 Wind from varies
Wind: varies 7 km/h
Temperature: 24°C
Dew Point: 16°C
Humidity: 61%
Barometer: 1017.3 hPa
Clouds: Mostly cloudy
Visibility: 24 km
Cloud details: Few Clouds 1158 m
Mostly cloudy 7620 m
2018/08/19 19:00 CYXU 191900Z VRB04KT 15SM FEW038 BKN250 24/16 A3004 RMK CU2CI5 SLP173 DENSITY ALT 2100FT
CXET - Egbert Cs, Ontario, Canada
Distance from station: E 128km
Updated: 08/19/2018 3:00pm

 Wind from S
Wind: S 4 km/h
Temperature: 25°C
Dew Point: 13°C
Humidity: 47%
2018/08/19 19:00 CXET 191900Z AUTO 17002KT 25/13 RMK AO1 SLP174 T02450134 56001
 
CWMZ - Western Isl (map, Ontario, Canada
Distance from station: NE 129km
Updated: 08/19/2018 2:00pm
NOT Current

 Wind from SW
Wind: SW 4 km/h
Temperature: 23°C
Dew Point: 14°C
Humidity: 57%
2018/08/19 18:00 CWMZ 191800Z AUTO 22002KT 23/14 RMK AO1 SLP175 T02250135 52002
KBAX - Bad Axe, Michigan, USA
Distance from station: WSW 133km
Updated: 08/19/2018 3:36pm
Overcast
Overcast
 Wind from E
Wind: E 13 km/h
Temperature: 23°C
Dew Point: 18°C
Humidity: 74%
Barometer: 1016.3 hPa
Clouds: Overcast
Visibility: 16 km
Cloud details: Mostly cloudy 1158 m
Mostly cloudy 1402 m
Overcast 2438 m
2018/08/19 19:36 KBAX 191936Z AUTO 09007KT 10SM BKN038 BKN046 OVC080 23/18 A3001 RMK AO2 T02330182
 
CWWX - Cove Island (map, Ontario, Canada
Distance from station: NNW 137km
Updated: 08/19/2018 3:00pm

 Wind from NW
Wind: NW 9 km/h
Temperature: 24°C
Dew Point: 18°C
Humidity: 69%
2018/08/19 19:00 CWWX 191900Z AUTO 31005KT 24/18 RMK AO1 SLP166 T02360183 58005
CYZR - Sarnia Airport, Ontario, Canada
Distance from station: SSW 144km
Updated: 08/19/2018 3:00pm
Few Clouds
Few Clouds
 Wind from varies
Wind: varies 4 km/h
Temperature: 26°C
Dew Point: 18°C
Humidity: 61%
Barometer: 1016.6 hPa
Clouds: Few Clouds
Visibility: 14 km
Cloud details: Few Clouds 1128 m
2018/08/19 19:00 CYZR 191900Z AUTO VRB02KT 9SM FEW037 26/18 A3002 RMK RVR MISG SLP167 DENSITY ALT 1800FT
 
CXHM - Hamilton Rbg Cs, Ontario, Canada
Distance from station: SE 150km
Updated: 08/19/2018 3:00pm

 Wind from E
Wind: E 9 km/h
Temperature: 24°C
Dew Point: 18°C
Humidity: 69%
2018/08/19 19:00 CXHM 191900Z AUTO 08005KT 24/18 RMK AO1 SLP164 T02390179 53002
CYYZ - Toronto/Pearson, Ontario, Canada
Distance from station: ESE 150km
Updated: 08/19/2018 3:00pm
Overcast
Overcast
 Wind from SE
Wind: SE 11 km/h
Temperature: 24°C
Dew Point: 17°C
Humidity: 65%
Barometer: 1017.3 hPa
Clouds: Overcast
Visibility: 24 km
Cloud details: Mostly cloudy 1097 m
Overcast 7925 m
2018/08/19 19:00 CYYZ 191900Z 14006KT 070V180 15SM BKN036 OVC260 24/17 A3004 RMK CU5CS3 SLP172 DENSITY ALT 1700FT
 
CXBI - Barrie-Oro, Ontario, Canada
Distance from station: ENE 151km
Updated: 08/19/2018 3:00pm

 Wind from E
Wind: E 9 km/h
Temperature: 24°C
Dew Point: 14°C
Humidity: 54%
2018/08/19 19:00 CXBI 191900Z AUTO 09005KT 24/14 RMK AO1 SLP180 T02410138 55000
CXDI - Delhi Cs (aut), Ontario, Canada
Distance from station: SSE 154km
Updated: 08/19/2018 3:00pm

 Wind from NNW
Wind: NNW 7 km/h
Temperature: 25°C
Dew Point: 14°C
Humidity: 51%
2018/08/19 19:00 CXDI 191900Z AUTO 33004KT 25/14 RMK AO1 SLP162 T02500144 58004
 
CWWB - Burlington Piers, Ontario, Canada
Distance from station: SE 157km
Updated: 08/19/2018 3:00pm

 Wind from ENE
Wind: ENE 17 km/h
Temperature: 23°C
Dew Point: 18°C
Humidity: 74%
2018/08/19 19:00 CWWB 191900Z AUTO 06009KT 23/18 RMK AO1 SLP170 T02270178 53002
CYHM - Hamilton Airport, Ontario, Canada
Distance from station: SE 157km
Updated: 08/19/2018 3:00pm
Overcast
Overcast
 Wind from NE
Wind: NE 17 km/h
Temperature: 24°C
Dew Point: 16°C
Humidity: 61%
Barometer: 1017.6 hPa
Clouds: Overcast
Visibility: 24 km
Cloud details: Few Clouds 914 m
Overcast 7620 m
2018/08/19 19:00 CYHM 191900Z 05009KT 15SM FEW030 OVC250 24/16 A3005 RMK CU1CS7 SLP175 DENSITY ALT 1900FT